createdAt,value
2022-11-04T00:00:10.027Z,5.25
2022-11-04T00:02:36.451Z,6.68
2022-11-04T00:05:02.919Z,8.15
2022-11-04T00:07:47.635Z,4.78
2022-11-04T00:10:17.012Z,5.72
2022-11-04T00:12:43.285Z,7.88
2022-11-04T00:15:28.304Z,9.88
2022-11-04T00:17:54.628Z,7.03
2022-11-04T00:20:39.517Z,7.57
2022-11-04T00:23:24.444Z,7.07
2022-11-04T00:26:09.214Z,4.47
2022-11-04T00:28:44.307Z,7.72
2022-11-04T00:31:29.782Z,4.10
2022-11-04T00:33:58.343Z,7.93
2022-11-04T00:36:25.267Z,5.57
2022-11-04T00:38:51.768Z,3.88
2022-11-04T00:41:27.920Z,4.22
2022-11-04T00:43:57.179Z,5.05
2022-11-04T00:46:23.839Z,4.85
2022-11-04T00:48:50.387Z,2.28
2022-11-04T00:51:16.820Z,5.15
2022-11-04T00:53:43.140Z,4.38
2022-11-04T00:56:09.594Z,4.25
2022-11-04T00:58:36.103Z,6.45
2022-11-04T01:01:11.585Z,3.03
2022-11-04T01:03:38.487Z,2.78
2022-11-04T01:06:05.562Z,2.47
2022-11-04T01:08:32.044Z,3.22
2022-11-04T01:11:02.104Z,2.65
2022-11-04T01:13:28.605Z,0.85
2022-11-04T01:15:58.001Z,2.97
2022-11-04T01:18:24.294Z,2.30
2022-11-04T01:20:50.650Z,2.08
2022-11-04T01:23:17.078Z,3.10
2022-11-04T01:25:43.550Z,2.60
2022-11-04T01:28:10.600Z,2.63
2022-11-04T01:30:40.246Z,3.30
2022-11-04T01:33:06.556Z,5.13
2022-11-04T01:35:32.912Z,2.78
2022-11-04T01:37:59.476Z,3.90
2022-11-04T01:40:25.966Z,3.55
2022-11-04T01:42:52.385Z,4.50
2022-11-04T01:45:20.521Z,2.83
2022-11-04T01:47:59.607Z,2.63
2022-11-04T01:50:30.067Z,1.67
2022-11-04T01:53:16.145Z,2.53
2022-11-04T01:55:52.580Z,1.35
2022-11-04T01:58:23.218Z,3.30
2022-11-04T02:00:49.597Z,2.13
2022-11-04T02:03:15.823Z,2.88
2022-11-04T02:05:43.748Z,4.68
2022-11-04T02:08:12.330Z,4.05
2022-11-04T02:10:41.667Z,3.35
2022-11-04T02:13:08.374Z,4.20
2022-11-04T02:16:08.560Z,5.63
2022-11-04T02:18:58.113Z,6.05
2022-11-04T02:21:44.466Z,5.32
2022-11-04T02:24:19.820Z,8.43
2022-11-04T02:27:15.467Z,10.43
2022-11-04T02:30:00.045Z,9.93
2022-11-04T02:32:42.577Z,7.15
2022-11-04T02:35:21.133Z,13.27
2022-11-04T02:38:13.294Z,11.40
2022-11-04T02:40:55.658Z,7.68
2022-11-04T02:43:40.754Z,10.68
2022-11-04T02:46:07.042Z,12.50
2022-11-04T02:48:45.696Z,10.13
2022-11-04T02:51:22.376Z,13.73
2022-11-04T02:54:00.399Z,10.27
2022-11-04T02:56:28.875Z,16.00
2022-11-04T02:59:19.527Z,11.80
2022-11-04T03:01:48.116Z,15.68
2022-11-04T03:04:18.836Z,8.45
2022-11-04T03:06:48.938Z,13.10
2022-11-04T03:09:18.128Z,9.68
2022-11-04T03:11:48.068Z,14.68
2022-11-04T03:14:20.387Z,14.15
2022-11-04T03:16:48.160Z,11.25
2022-11-04T03:19:34.308Z,9.23
2022-11-04T03:22:05.027Z,9.10
2022-11-04T03:24:32.084Z,10.18
2022-11-04T03:27:02.879Z,11.05
2022-11-04T03:29:37.265Z,8.70
2022-11-04T03:32:40.649Z,7.53
2022-11-04T03:35:08.475Z,8.63
2022-11-04T03:37:35.010Z,10.15
2022-11-04T03:40:02.085Z,8.60
2022-11-04T03:42:30.595Z,11.00
2022-11-04T03:44:57.642Z,8.68
2022-11-04T03:47:26.795Z,8.23
2022-11-04T03:50:07.446Z,8.07
2022-11-04T03:52:34.367Z,10.40
2022-11-04T03:55:00.723Z,9.98
2022-11-04T03:57:36.479Z,7.68
2022-11-04T04:00:15.354Z,6.32
2022-11-04T04:02:56.839Z,7.65
2022-11-04T04:05:41.004Z,9.75
2022-11-04T04:08:28.653Z,7.70
2022-11-04T04:11:13.212Z,9.48
2022-11-04T04:13:56.536Z,10.35
2022-11-04T04:16:38.204Z,8.15
2022-11-04T04:19:11.612Z,7.90
2022-11-04T04:21:46.807Z,8.05
2022-11-04T04:24:35.449Z,10.23
2022-11-04T04:27:21.233Z,8.63
2022-11-04T04:29:51.080Z,8.85
2022-11-04T04:32:20.268Z,9.60
2022-11-04T04:34:46.589Z,7.18
2022-11-04T04:37:24.156Z,12.07
2022-11-04T04:40:31.519Z,15.38
2022-11-04T04:43:16.292Z,7.45
2022-11-04T04:45:48.257Z,11.88
2022-11-04T04:48:14.670Z,8.20
2022-11-04T04:50:48.570Z,8.27
2022-11-04T04:53:15.287Z,9.20
2022-11-04T04:55:42.045Z,10.10
2022-11-04T04:58:08.911Z,9.18
2022-11-04T05:00:35.344Z,8.95
2022-11-04T05:03:01.674Z,7.90
2022-11-04T05:05:28.045Z,11.00
2022-11-04T05:07:54.352Z,9.40
2022-11-04T05:10:20.860Z,9.77
2022-11-04T05:13:05.960Z,12.90
2022-11-04T05:15:32.612Z,11.55
2022-11-04T05:18:00.999Z,8.10
2022-11-04T05:20:28.936Z,6.28
2022-11-04T05:22:55.261Z,6.82
2022-11-04T05:25:21.675Z,9.02
2022-11-04T05:27:47.993Z,9.35
2022-11-04T05:30:14.338Z,11.10
2022-11-04T05:32:40.690Z,9.00
2022-11-04T05:35:07.416Z,9.60
2022-11-04T05:37:33.746Z,14.80
2022-11-04T05:40:00.110Z,10.38
2022-11-04T05:42:26.435Z,9.70
2022-11-04T05:44:52.781Z,9.38
2022-11-04T05:47:19.069Z,8.55
2022-11-04T05:49:45.371Z,8.18
2022-11-04T05:52:11.687Z,13.05
2022-11-04T05:54:39.180Z,7.47
2022-11-04T05:57:05.521Z,10.35
2022-11-04T05:59:31.943Z,7.57
2022-11-04T06:01:58.397Z,8.88
2022-11-04T06:04:24.845Z,7.45
2022-11-04T06:06:51.187Z,7.30
2022-11-04T06:09:17.553Z,9.70
2022-11-04T06:11:44.001Z,8.45
2022-11-04T06:14:14.672Z,7.72
2022-11-04T06:16:43.922Z,7.20
2022-11-04T06:19:13.431Z,8.13
2022-11-04T06:21:42.338Z,7.65
2022-11-04T06:24:08.658Z,8.10
2022-11-04T06:26:35.158Z,7.47
2022-11-04T06:29:01.553Z,6.65
2022-11-04T06:31:27.933Z,9.10
2022-11-04T06:33:54.283Z,8.50
2022-11-04T06:36:20.626Z,11.13
2022-11-04T06:38:46.972Z,10.30
2022-11-04T06:41:16.218Z,8.50
2022-11-04T06:43:43.003Z,9.93
2022-11-04T06:46:27.920Z,7.68
2022-11-04T06:48:56.159Z,6.97
2022-11-04T06:51:23.180Z,6.95
2022-11-04T06:53:49.528Z,7.45
2022-11-04T06:56:15.850Z,12.10
2022-11-04T06:58:42.247Z,8.68
2022-11-04T07:01:14.643Z,9.98
2022-11-04T07:03:44.082Z,7.03
2022-11-04T07:06:11.468Z,11.73
2022-11-04T07:08:37.814Z,8.80
2022-11-04T07:11:04.170Z,10.50
2022-11-04T07:13:30.451Z,8.63
2022-11-04T07:15:57.139Z,9.32
2022-11-04T07:18:23.590Z,7.50
2022-11-04T07:20:49.977Z,8.73
2022-11-04T07:23:16.325Z,12.85
2022-11-04T07:25:42.949Z,7.15
2022-11-04T07:28:09.860Z,11.27
2022-11-04T07:30:36.347Z,6.80
2022-11-04T07:33:02.845Z,10.40
2022-11-04T07:35:29.178Z,9.85
2022-11-04T07:37:55.605Z,11.50
2022-11-04T07:40:21.912Z,5.53
2022-11-04T07:42:48.678Z,8.48
2022-11-04T07:45:15.101Z,14.00
2022-11-04T07:47:41.452Z,7.22
2022-11-04T07:50:10.757Z,5.90
2022-11-04T07:52:38.011Z,15.57
2022-11-04T07:55:04.735Z,9.35
2022-11-04T07:57:31.079Z,7.82
2022-11-04T07:59:57.518Z,7.13
2022-11-04T08:02:27.579Z,8.75
2022-11-04T08:07:21.430Z,9.30
2022-11-04T08:09:47.748Z,6.53
2022-11-04T08:12:14.070Z,9.13
2022-11-04T08:14:40.497Z,7.15
2022-11-04T08:17:06.923Z,12.55
2022-11-04T08:19:33.322Z,7.00
2022-11-04T08:21:59.662Z,10.10
2022-11-04T08:24:25.956Z,9.82
2022-11-04T08:26:52.521Z,6.70
2022-11-04T08:29:19.197Z,7.45
2022-11-04T08:31:45.623Z,7.32
2022-11-04T08:34:12.109Z,6.88
2022-11-04T08:36:40.784Z,7.38
2022-11-04T08:39:10.863Z,9.25
2022-11-04T08:41:40.934Z,9.02
2022-11-04T08:44:07.836Z,7.75
2022-11-04T08:46:38.229Z,8.32
2022-11-04T08:49:09.695Z,6.07
2022-11-04T08:51:40.938Z,8.60
2022-11-04T08:54:07.725Z,9.20
2022-11-04T08:56:37.178Z,14.05
2022-11-04T08:59:04.291Z,11.43
2022-11-04T09:01:35.829Z,8.88
2022-11-04T09:04:03.339Z,6.22
2022-11-04T09:06:33.280Z,7.80
2022-11-04T09:09:03.861Z,10.45
2022-11-04T09:11:36.684Z,9.13
2022-11-04T09:14:03.689Z,13.35
2022-11-04T09:16:32.440Z,7.43
2022-11-04T09:18:59.474Z,10.50
2022-11-04T09:21:27.305Z,13.50
2022-11-04T09:23:54.377Z,9.52
2022-11-04T09:26:22.286Z,10.68
2022-11-04T09:28:54.026Z,6.43
2022-11-04T09:31:21.275Z,9.43
2022-11-04T09:33:47.849Z,8.68
2022-11-04T09:36:14.421Z,11.32
2022-11-04T09:38:42.171Z,17.75
2022-11-04T09:41:31.507Z,8.77
2022-11-04T09:44:13.021Z,5.55
2022-11-04T09:46:39.950Z,6.10
2022-11-04T09:49:10.486Z,8.10
2022-11-04T09:51:53.888Z,10.13
2022-11-04T09:54:29.150Z,8.70
2022-11-04T09:56:59.374Z,5.55
2022-11-04T09:59:28.909Z,8.35
2022-11-04T10:02:02.468Z,8.90
2022-11-04T10:04:34.793Z,13.55
2022-11-04T10:07:11.172Z,11.75
2022-11-04T10:09:50.319Z,11.27
2022-11-04T10:12:31.634Z,7.30
2022-11-04T10:17:38.731Z,14.02
2022-11-04T10:20:15.947Z,9.70
2022-11-04T10:23:06.975Z,11.43
2022-11-04T10:25:49.071Z,19.75
2022-11-04T10:28:19.333Z,8.27
2022-11-04T10:30:51.670Z,7.47
2022-11-04T10:33:28.967Z,9.35
2022-11-04T10:36:02.666Z,10.38
2022-11-04T10:38:44.856Z,11.10
2022-11-04T10:41:20.030Z,9.52
2022-11-04T10:43:47.710Z,9.70
2022-11-04T10:46:45.683Z,9.82
2022-11-04T10:49:36.670Z,15.02
2022-11-04T10:52:05.000Z,9.18
2022-11-04T10:54:39.750Z,10.20
2022-11-04T10:57:06.161Z,14.32
2022-11-04T10:59:55.181Z,10.82
2022-11-04T11:02:36.773Z,12.45
2022-11-04T11:05:18.377Z,12.75
2022-11-04T11:07:46.809Z,12.93
2022-11-04T11:10:26.429Z,13.40
2022-11-04T11:13:06.896Z,12.70
2022-11-04T11:15:38.397Z,10.15
2022-11-04T11:18:07.681Z,10.68
2022-11-04T11:20:37.666Z,9.30
2022-11-04T11:23:10.137Z,13.18
2022-11-04T11:25:45.009Z,10.55
2022-11-04T11:28:21.268Z,9.38
2022-11-04T11:30:47.550Z,9.32
2022-11-04T11:33:23.454Z,8.73
2022-11-04T11:36:14.277Z,12.77
2022-11-04T11:38:58.037Z,12.60
2022-11-04T11:41:31.396Z,9.02
2022-11-04T11:44:06.698Z,14.02
2022-11-04T11:46:35.421Z,12.20
2022-11-04T11:49:04.808Z,15.52
2022-11-04T11:51:35.314Z,11.80
2022-11-04T11:54:22.550Z,8.95
2022-11-04T11:57:12.601Z,11.10
2022-11-04T12:02:47.763Z,10.75
2022-11-04T12:11:34.862Z,10.13
2022-11-04T12:14:06.322Z,9.25
2022-11-04T12:17:03.686Z,10.23
2022-11-04T12:20:03.679Z,17.35
2022-11-04T12:22:36.084Z,15.77
2022-11-04T12:25:25.239Z,9.32
2022-11-04T12:28:01.022Z,12.63
2022-11-04T12:30:38.162Z,11.23
2022-11-04T12:33:24.386Z,13.73
2022-11-04T12:35:57.277Z,14.43
2022-11-04T12:38:32.111Z,12.02
2022-11-04T12:41:58.761Z,14.57
2022-11-04T12:44:21.711Z,14.45
2022-11-04T12:47:03.971Z,11.45
2022-11-04T12:49:49.012Z,11.45
2022-11-04T12:52:23.506Z,12.30
2022-11-04T12:55:21.961Z,11.15
2022-11-04T12:58:06.807Z,16.70
2022-11-04T13:00:36.039Z,14.15
2022-11-04T13:03:14.966Z,15.05
2022-11-04T13:05:53.029Z,20.02
2022-11-04T13:08:34.315Z,12.88
2022-11-04T13:14:10.813Z,14.32
2022-11-04T13:16:40.715Z,12.63
2022-11-04T13:19:25.571Z,13.45
2022-11-04T13:21:54.155Z,10.57
2022-11-04T13:24:30.192Z,10.93
2022-11-04T13:27:01.610Z,14.77
2022-11-04T13:29:29.339Z,12.55
2022-11-04T13:32:04.826Z,13.48
2022-11-04T13:34:39.262Z,10.40
2022-11-04T13:37:34.908Z,16.92
2022-11-04T13:40:13.665Z,13.25
2022-11-04T13:43:23.190Z,13.88
2022-11-04T13:45:53.598Z,13.65
2022-11-04T13:48:24.291Z,13.63
2022-11-04T13:50:59.146Z,12.98
2022-11-04T13:53:42.700Z,17.23
2022-11-04T13:56:32.326Z,19.10
2022-11-04T13:59:02.007Z,10.55
2022-11-04T14:01:33.481Z,10.52
2022-11-04T14:04:19.282Z,11.88
2022-11-04T14:07:03.972Z,19.10
2022-11-04T14:09:33.860Z,15.35
2022-11-04T14:12:13.420Z,10.57
2022-11-04T14:14:49.883Z,8.77
2022-11-04T14:17:34.615Z,10.27
2022-11-04T14:20:24.047Z,10.25
2022-11-04T14:22:54.614Z,9.10
2022-11-04T14:25:23.556Z,8.73
2022-11-04T14:27:52.743Z,6.82
2022-11-04T14:30:31.778Z,5.78
2022-11-04T14:33:02.394Z,9.18
2022-11-04T14:35:30.361Z,8.73
2022-11-04T14:38:05.461Z,6.28
2022-11-04T14:40:50.658Z,7.40
2022-11-04T14:43:40.542Z,9.07
2022-11-04T14:46:07.450Z,8.77
2022-11-04T14:48:34.626Z,9.65
2022-11-04T14:51:01.073Z,9.65
2022-11-04T14:53:37.661Z,10.95
2022-11-04T14:56:22.109Z,11.98
2022-11-04T14:58:58.302Z,13.43
2022-11-04T15:01:32.936Z,15.13
2022-11-04T15:04:29.194Z,11.10
2022-11-04T15:07:03.421Z,15.90
2022-11-04T15:09:41.301Z,12.07
2022-11-04T15:12:29.064Z,12.95
2022-11-04T15:14:56.448Z,10.45
2022-11-04T15:17:26.601Z,11.43
2022-11-04T15:19:55.972Z,10.80
2022-11-04T15:22:22.989Z,11.40
2022-11-04T15:24:53.118Z,12.75
2022-11-04T15:27:27.474Z,12.35
2022-11-04T15:29:58.871Z,13.93
2022-11-04T15:32:26.555Z,12.93
2022-11-04T15:34:54.529Z,13.02
2022-11-04T15:37:23.968Z,14.00
2022-11-04T15:39:53.001Z,14.52
2022-11-04T15:42:39.733Z,16.48
2022-11-04T15:45:18.235Z,13.27
2022-11-04T15:47:44.704Z,12.00
2022-11-04T15:50:24.720Z,12.27
2022-11-04T15:52:55.488Z,13.25
2022-11-04T15:55:26.613Z,17.30
2022-11-04T15:57:55.207Z,12.88
2022-11-04T16:00:24.834Z,8.63
2022-11-04T16:02:55.011Z,6.45
2022-11-04T16:05:21.420Z,4.85
2022-11-04T16:07:52.917Z,2.97
2022-11-04T16:10:25.212Z,1.90
2022-11-04T16:12:58.901Z,1.50
2022-11-04T16:15:43.395Z,2.03
2022-11-04T16:19:03.937Z,1.92
2022-11-04T16:21:33.738Z,1.40
2022-11-04T16:24:04.343Z,2.35
2022-11-04T16:26:37.528Z,2.30
2022-11-04T16:29:09.275Z,1.90
2022-11-04T16:31:37.007Z,1.60
2022-11-04T16:34:05.878Z,1.73
2022-11-04T16:36:35.537Z,2.58
2022-11-04T16:39:04.796Z,2.67
2022-11-04T16:41:38.440Z,3.35
2022-11-04T16:44:11.165Z,2.22
2022-11-04T16:46:40.564Z,7.28
2022-11-04T16:49:06.858Z,3.58
2022-11-04T16:51:34.361Z,1.35
2022-11-04T16:54:00.824Z,4.13
2022-11-04T16:56:27.229Z,1.77
2022-11-04T16:58:53.537Z,2.13
2022-11-04T17:01:21.105Z,1.88
2022-11-04T17:03:47.942Z,4.13
2022-11-04T17:06:16.258Z,2.80
2022-11-04T17:08:43.341Z,2.55
2022-11-04T17:11:11.190Z,2.63
2022-11-04T17:13:38.280Z,2.65
2022-11-04T17:16:12.859Z,2.22
2022-11-04T17:18:39.295Z,2.08
2022-11-04T17:21:07.939Z,1.95
2022-11-04T17:23:34.693Z,2.33
2022-11-04T17:26:02.039Z,1.02
2022-11-04T17:28:28.670Z,2.70
2022-11-04T17:30:55.063Z,4.28
2022-11-04T17:33:24.519Z,3.65
2022-11-04T17:35:51.724Z,1.98
2022-11-04T17:38:19.389Z,1.38
2022-11-04T17:41:04.692Z,2.85
2022-11-04T17:43:50.038Z,2.50
2022-11-04T17:46:35.881Z,2.72
2022-11-04T17:49:16.786Z,1.60
2022-11-04T17:51:49.244Z,4.13
2022-11-04T17:54:16.336Z,2.08
2022-11-04T17:56:43.422Z,3.53
2022-11-04T17:59:12.206Z,4.32
2022-11-04T18:01:39.947Z,4.65
2022-11-04T18:04:13.378Z,5.07
2022-11-04T18:06:39.835Z,4.05
2022-11-04T18:09:06.684Z,4.63
2022-11-04T18:11:51.447Z,5.07
2022-11-04T18:14:20.763Z,3.53
2022-11-04T18:16:49.563Z,4.80
2022-11-04T18:19:18.365Z,7.75
2022-11-04T18:21:45.207Z,3.90
2022-11-04T18:24:12.600Z,7.13
2022-11-04T18:26:39.713Z,5.07
2022-11-04T18:29:06.743Z,7.85
2022-11-04T18:31:36.113Z,5.32
2022-11-04T18:34:06.383Z,7.43
2022-11-04T18:36:33.824Z,5.60
2022-11-04T18:39:01.647Z,6.68
2022-11-04T18:41:28.269Z,8.18
2022-11-04T18:43:54.649Z,8.55
2022-11-04T18:46:24.897Z,7.47
2022-11-04T18:48:51.770Z,10.23
2022-11-04T18:51:21.844Z,8.10
2022-11-04T18:53:49.507Z,9.68
2022-11-04T18:56:19.747Z,8.23
2022-11-04T18:58:47.260Z,10.40
2022-11-04T19:01:19.453Z,8.80
2022-11-04T19:03:46.924Z,7.60
2022-11-04T19:06:18.069Z,6.60
2022-11-04T19:11:20.154Z,8.57
2022-11-04T19:13:55.076Z,5.53
2022-11-04T19:16:22.281Z,8.05
2022-11-04T19:18:49.599Z,9.88
2022-11-04T19:21:18.819Z,6.45
2022-11-04T19:23:45.581Z,7.75
2022-11-04T19:26:17.986Z,6.65
2022-11-04T19:28:48.524Z,4.85
2022-11-04T19:31:27.862Z,8.75
2022-11-04T19:33:57.147Z,4.45
2022-11-04T19:36:24.746Z,6.72
2022-11-04T19:38:55.465Z,6.35
2022-11-04T19:41:41.388Z,4.15
2022-11-04T19:44:13.304Z,6.28
2022-11-04T19:46:40.251Z,5.22
2022-11-04T19:49:10.965Z,6.88
2022-11-04T19:51:37.376Z,8.05
2022-11-04T19:54:04.910Z,7.57
2022-11-04T19:56:33.625Z,8.85
2022-11-04T19:59:05.825Z,8.73
2022-11-04T20:01:34.327Z,8.45
2022-11-04T20:04:02.561Z,5.55
2022-11-04T20:06:29.522Z,5.82
2022-11-04T20:08:58.114Z,7.70
2022-11-04T20:11:24.714Z,7.13
2022-11-04T20:13:51.812Z,7.38
2022-11-04T20:16:30.690Z,6.20
2022-11-04T20:19:01.103Z,6.03
2022-11-04T20:21:32.424Z,8.53
2022-11-04T20:24:02.388Z,5.30
2022-11-04T20:26:32.448Z,6.07
2022-11-04T20:28:59.137Z,6.43
2022-11-04T20:31:31.333Z,8.52
2022-11-04T20:33:58.360Z,4.32
2022-11-04T20:36:28.561Z,7.72
2022-11-04T20:38:56.727Z,11.27
2022-11-04T20:41:23.229Z,4.82
2022-11-04T20:43:49.609Z,6.50
2022-11-04T20:46:21.800Z,6.85
2022-11-04T20:48:53.135Z,7.97
2022-11-04T20:51:22.277Z,11.27
2022-11-04T20:53:49.460Z,9.02
2022-11-04T20:56:18.044Z,5.70
2022-11-04T20:58:46.985Z,6.30
2022-11-04T21:01:21.346Z,8.00
2022-11-04T21:03:47.808Z,9.00
2022-11-04T21:06:14.503Z,7.50
2022-11-04T21:08:40.852Z,8.07
2022-11-04T21:11:07.725Z,9.27
2022-11-04T21:13:34.577Z,6.40
2022-11-04T21:16:01.910Z,8.52
2022-11-04T21:18:29.594Z,7.07
2022-11-04T21:20:57.428Z,6.63
2022-11-04T21:23:24.862Z,6.88
2022-11-04T21:25:54.976Z,6.15
2022-11-04T21:28:21.295Z,14.98
2022-11-04T21:30:49.882Z,8.52
2022-11-04T21:33:16.574Z,9.15
2022-11-04T21:35:43.650Z,9.38
2022-11-04T21:38:13.854Z,7.65
2022-11-04T21:40:40.908Z,8.27
2022-11-04T21:43:07.391Z,10.57
2022-11-04T21:45:34.647Z,8.90
2022-11-04T21:48:01.566Z,7.57
2022-11-04T21:50:28.093Z,7.47
2022-11-04T21:52:54.500Z,9.25
2022-11-04T21:55:20.931Z,9.25
2022-11-04T21:57:47.266Z,10.13
2022-11-04T22:00:16.733Z,7.95
2022-11-04T22:02:43.632Z,8.80
2022-11-04T22:05:11.473Z,10.07
2022-11-04T22:07:58.169Z,10.85
2022-11-04T22:10:26.266Z,7.70
2022-11-04T22:12:53.163Z,6.68
2022-11-04T22:15:39.535Z,8.00
2022-11-04T22:18:07.040Z,8.07
2022-11-04T22:20:36.259Z,9.07
2022-11-04T22:23:03.190Z,14.00
2022-11-04T22:25:30.732Z,9.93
2022-11-04T22:27:57.025Z,10.00
2022-11-04T22:30:23.434Z,11.68
2022-11-04T22:32:49.904Z,9.52
2022-11-04T22:35:16.899Z,8.63
2022-11-04T22:37:43.220Z,9.38
2022-11-04T22:40:09.999Z,12.07
2022-11-04T22:42:36.356Z,9.75
2022-11-04T22:45:02.929Z,11.23
2022-11-04T22:47:29.324Z,10.02
2022-11-04T22:49:55.629Z,9.20
2022-11-04T22:52:21.988Z,11.27
2022-11-04T22:54:48.438Z,10.98
2022-11-04T22:57:14.781Z,10.02
2022-11-04T22:59:41.112Z,13.05
2022-11-04T23:02:07.543Z,9.45
2022-11-04T23:04:34.127Z,12.68
2022-11-04T23:07:00.495Z,11.15
2022-11-04T23:09:26.807Z,11.75
2022-11-04T23:12:11.988Z,10.00
2022-11-04T23:14:40.932Z,10.65
2022-11-04T23:17:35.204Z,13.27
2022-11-04T23:20:02.474Z,11.77
2022-11-04T23:22:47.587Z,9.45
2022-11-04T23:25:14.184Z,9.63
2022-11-04T23:27:59.170Z,10.95
2022-11-04T23:30:27.735Z,10.65
2022-11-04T23:33:06.325Z,11.57
2022-11-04T23:35:54.670Z,11.13
2022-11-04T23:38:21.413Z,12.15
2022-11-04T23:41:08.831Z,15.02
2022-11-04T23:43:36.021Z,13.50
2022-11-04T23:46:21.054Z,10.30
2022-11-04T23:49:05.765Z,12.27
2022-11-04T23:51:50.581Z,11.65
2022-11-04T23:54:35.454Z,12.10
2022-11-04T23:57:20.644Z,14.50
